createdAt,value
2022-08-17T00:01:24.400Z,100538.00
2022-08-17T00:05:33.187Z,100536.78
2022-08-17T00:09:34.625Z,100536.94
2022-08-17T00:13:43.274Z,100534.19
2022-08-17T00:17:50.762Z,100534.91
2022-08-17T00:22:31.114Z,100539.31
2022-08-17T00:26:35.854Z,100543.72
2022-08-17T00:30:53.011Z,100537.88
2022-08-17T00:34:55.102Z,100545.81
2022-08-17T00:38:56.667Z,100550.00
2022-08-17T00:43:09.599Z,100549.34
2022-08-17T00:47:13.448Z,100551.16
2022-08-17T00:51:36.235Z,100553.78
2022-08-17T00:55:37.710Z,100549.91
2022-08-17T00:59:44.230Z,100550.00
2022-08-17T01:03:45.917Z,100545.06
2022-08-17T01:07:50.804Z,100547.44
2022-08-17T01:11:52.503Z,100554.53
2022-08-17T01:16:05.188Z,100550.38
2022-08-17T01:20:07.081Z,100550.88
2022-08-17T01:24:08.789Z,100555.13
2022-08-17T01:28:10.455Z,100556.34
2022-08-17T01:32:32.178Z,100554.81
2022-08-17T01:36:33.650Z,100556.53
2022-08-17T01:40:39.062Z,100555.69
2022-08-17T01:44:40.942Z,100555.31
2022-08-17T01:48:43.611Z,100560.78
2022-08-17T01:52:49.238Z,100559.47
2022-08-17T01:56:52.098Z,100567.06
2022-08-17T02:01:00.184Z,100565.16
2022-08-17T02:05:02.897Z,100559.69
2022-08-17T02:09:05.954Z,100564.38
2022-08-17T02:13:07.445Z,100573.19
2022-08-17T02:17:08.888Z,100570.22
2022-08-17T02:21:10.727Z,100561.69
2022-08-17T02:25:16.572Z,100569.75
2022-08-17T02:29:18.371Z,100565.06
2022-08-17T02:33:19.927Z,100566.34
2022-08-17T02:37:21.917Z,100558.00
2022-08-17T02:41:23.367Z,100568.78
2022-08-17T02:45:25.998Z,100556.28
2022-08-17T02:49:27.467Z,100558.00
2022-08-17T02:53:33.671Z,100550.47
2022-08-17T02:57:37.734Z,100552.28
2022-08-17T03:01:39.285Z,100546.28
2022-08-17T03:05:40.889Z,100550.31
2022-08-17T03:09:42.689Z,100558.00
2022-08-17T03:13:44.144Z,100553.94
2022-08-17T03:17:46.089Z,100553.88
2022-08-17T03:21:47.520Z,100547.16
2022-08-17T03:25:58.050Z,100547.25
2022-08-17T03:29:59.524Z,100553.25
2022-08-17T03:34:01.111Z,100550.59
2022-08-17T03:38:03.357Z,100553.91
2022-08-17T03:42:32.095Z,100551.09
2022-08-17T03:46:52.943Z,100543.53
2022-08-17T03:51:14.924Z,100543.00
2022-08-17T03:55:36.310Z,100549.31
2022-08-17T03:59:38.725Z,100545.13
2022-08-17T04:03:40.544Z,100549.84
2022-08-17T04:07:42.003Z,100547.03
2022-08-17T04:11:43.676Z,100550.22
2022-08-17T04:15:47.091Z,100555.81
2022-08-17T04:19:48.595Z,100556.00
2022-08-17T04:23:50.562Z,100561.59
2022-08-17T04:27:52.298Z,100561.78
2022-08-17T04:31:53.888Z,100563.75
2022-08-17T04:35:59.249Z,100564.00
2022-08-17T04:40:19.415Z,100565.91
2022-08-17T04:44:37.088Z,100582.03
2022-08-17T04:48:42.878Z,100578.56
2022-08-17T04:52:47.193Z,100580.75
2022-08-17T04:56:48.732Z,100584.03
2022-08-17T05:00:50.612Z,100580.25
2022-08-17T05:04:52.302Z,100589.56
2022-08-17T05:08:54.577Z,100596.53
2022-08-17T05:13:00.863Z,100595.94
2022-08-17T05:17:07.475Z,100603.25
2022-08-17T05:21:13.619Z,100602.16
2022-08-17T05:25:15.105Z,100606.59
2022-08-17T05:29:16.554Z,100604.00
2022-08-17T05:33:21.654Z,100610.72
2022-08-17T05:37:23.095Z,100612.88
2022-08-17T05:41:24.546Z,100611.16
2022-08-17T05:45:55.678Z,100614.34
2022-08-17T05:49:49.102Z,100614.22
2022-08-17T05:54:00.510Z,100620.03
2022-08-17T05:58:19.326Z,100630.00
2022-08-17T06:03:03.493Z,100631.41
2022-08-17T06:07:16.513Z,100635.56
2022-08-17T06:11:55.435Z,100641.13
2022-08-17T06:16:32.880Z,100645.13
2022-08-17T06:20:44.973Z,100638.59
2022-08-17T06:25:15.536Z,100643.34
2022-08-17T06:29:29.302Z,100640.28
2022-08-17T06:33:39.388Z,100649.84
2022-08-17T06:37:57.602Z,100643.47
2022-08-17T06:42:54.996Z,100641.41
2022-08-17T06:47:07.148Z,100644.97
2022-08-17T06:51:22.739Z,100644.84
2022-08-17T06:55:37.832Z,100647.00
2022-08-17T07:00:04.941Z,100643.00
2022-08-17T07:04:18.915Z,100650.00
2022-08-17T07:08:45.651Z,100651.47
2022-08-17T07:12:48.489Z,100651.00
2022-08-17T07:16:56.129Z,100652.13
2022-08-17T07:21:05.611Z,100655.31
2022-08-17T07:25:09.838Z,100647.78
2022-08-17T07:29:19.622Z,100651.03
2022-08-17T07:33:26.954Z,100653.91
2022-08-17T07:37:28.450Z,100658.69
2022-08-17T07:41:53.335Z,100645.28
2022-08-17T07:46:39.751Z,100657.16
2022-08-17T07:50:41.203Z,100664.56
2022-08-17T07:54:48.979Z,100662.78
2022-08-17T07:59:06.592Z,100660.69
2022-08-17T08:03:28.541Z,100663.78
2022-08-17T08:07:38.125Z,100669.75
2022-08-17T08:11:44.125Z,100665.53
2022-08-17T08:15:55.402Z,100663.19
2022-08-17T08:19:59.868Z,100665.69
2022-08-17T08:24:07.023Z,100672.56
2022-08-17T08:28:25.333Z,100675.22
2022-08-17T08:32:57.225Z,100666.31
2022-08-17T08:37:36.689Z,100671.50
2022-08-17T08:41:58.846Z,100663.75
2022-08-17T08:46:16.037Z,100662.00
2022-08-17T08:50:40.372Z,100656.91
2022-08-17T08:54:55.918Z,100657.00
2022-08-17T08:59:00.222Z,100655.69
2022-08-17T09:03:52.810Z,100660.84
2022-08-17T09:08:20.009Z,100660.50
2022-08-17T09:12:29.167Z,100665.91
2022-08-17T09:16:40.475Z,100655.88
2022-08-17T09:20:56.251Z,100658.41
2022-08-17T09:25:09.956Z,100653.31
2022-08-17T09:29:14.567Z,100646.34
2022-08-17T09:33:23.124Z,100653.91
2022-08-17T09:37:32.547Z,100651.59
2022-08-17T09:41:52.867Z,100654.88
2022-08-17T09:46:03.894Z,100663.53
2022-08-17T09:51:05.223Z,100666.44
2022-08-17T09:54:44.983Z,100654.78
2022-08-17T09:59:05.067Z,100648.53
2022-08-17T10:03:16.195Z,100654.25
2022-08-17T10:07:43.904Z,100648.97
2022-08-17T10:12:12.505Z,100648.31
2022-08-17T10:16:32.640Z,100645.53
2022-08-17T10:21:19.637Z,100637.72
2022-08-17T10:25:54.246Z,100651.09
2022-08-17T10:30:01.285Z,100645.53
2022-08-17T10:34:24.235Z,100656.38
2022-08-17T10:39:08.534Z,100649.06
2022-08-17T10:43:32.833Z,100635.03
2022-08-17T10:48:06.292Z,100656.00
2022-08-17T10:52:20.614Z,100646.13
2022-08-17T10:56:24.408Z,100639.38
2022-08-17T11:00:27.851Z,100646.22
2022-08-17T11:04:44.843Z,100641.81
2022-08-17T11:09:02.646Z,100626.22
2022-08-17T11:13:41.179Z,100626.88
2022-08-17T11:17:52.009Z,100633.03
2022-08-17T11:22:31.308Z,100624.44
2022-08-17T11:26:38.358Z,100616.72
2022-08-17T11:30:50.219Z,100615.16
2022-08-17T11:35:25.296Z,100618.34
2022-08-17T11:40:06.468Z,100615.72
2022-08-17T11:44:19.931Z,100606.59
2022-08-17T11:49:17.934Z,100604.97
2022-08-17T11:53:39.591Z,100606.84
2022-08-17T11:57:41.013Z,100602.69
2022-08-17T12:01:57.089Z,100604.91
2022-08-17T12:06:19.847Z,100595.28
2022-08-17T12:10:32.316Z,100596.63
2022-08-17T12:15:08.547Z,100602.09
2022-08-17T12:18:59.818Z,100607.06
2022-08-17T12:23:32.018Z,100597.16
2022-08-17T12:27:47.705Z,100608.63
2022-08-17T12:31:58.994Z,100603.06
2022-08-17T12:36:07.461Z,100601.31
2022-08-17T12:40:27.071Z,100607.34
2022-08-17T12:44:35.984Z,100592.91
2022-08-17T12:48:59.554Z,100585.50
2022-08-17T12:53:02.804Z,100587.69
2022-08-17T12:57:17.283Z,100571.78
2022-08-17T13:01:19.621Z,100566.34
2022-08-17T13:05:37.375Z,100563.16
2022-08-17T13:09:40.767Z,100562.59
2022-08-17T13:13:45.682Z,100565.28
2022-08-17T13:17:56.714Z,100557.03
2022-08-17T13:22:01.376Z,100557.78
2022-08-17T13:26:07.644Z,100552.97
2022-08-17T13:30:12.121Z,100559.53
2022-08-17T13:34:17.618Z,100557.81
2022-08-17T13:38:47.194Z,100552.75
2022-08-17T13:42:53.979Z,100553.28
2022-08-17T13:46:57.406Z,100556.50
2022-08-17T13:50:59.503Z,100554.41
2022-08-17T13:55:07.710Z,100557.53
2022-08-17T13:59:16.554Z,100550.44
2022-08-17T14:03:35.801Z,100547.78
2022-08-17T14:07:40.318Z,100544.69
2022-08-17T14:11:43.115Z,100541.00
2022-08-17T14:15:55.063Z,100537.34
2022-08-17T14:19:58.997Z,100549.63
2022-08-17T14:24:00.487Z,100548.22
2022-08-17T14:28:05.594Z,100545.13
2022-08-17T14:32:21.016Z,100547.25
2022-08-17T14:36:22.605Z,100531.59
2022-08-17T14:40:25.412Z,100544.94
2022-08-17T14:44:26.874Z,100535.66
2022-08-17T14:48:29.413Z,100535.22
2022-08-17T14:52:31.533Z,100533.44
2022-08-17T14:56:37.820Z,100534.31
2022-08-17T15:00:40.838Z,100525.59
2022-08-17T15:04:45.656Z,100525.25
2022-08-17T15:08:47.294Z,100528.25
2022-08-17T15:12:49.070Z,100533.09
2022-08-17T15:16:50.526Z,100533.28
2022-08-17T15:20:52.573Z,100523.78
2022-08-17T15:24:55.698Z,100516.31
2022-08-17T15:28:57.314Z,100522.41
2022-08-17T15:32:59.619Z,100527.09
2022-08-17T15:37:02.496Z,100520.13
2022-08-17T15:41:03.976Z,100518.13
2022-08-17T15:45:09.543Z,100510.28
2022-08-17T15:49:11.192Z,100512.00
2022-08-17T15:53:12.654Z,100511.66
2022-08-17T15:57:15.831Z,100503.88
2022-08-17T16:02:21.594Z,100510.16
2022-08-17T16:05:42.110Z,100503.09
2022-08-17T16:09:44.995Z,100504.97
2022-08-17T16:13:54.765Z,100498.63
2022-08-17T16:17:56.937Z,100493.94
2022-08-17T16:21:58.474Z,100492.97
2022-08-17T16:25:59.946Z,100499.78
2022-08-17T16:30:02.039Z,100493.47
2022-08-17T16:34:16.306Z,100483.31
2022-08-17T16:38:20.467Z,100487.06
2022-08-17T16:42:28.381Z,100486.47
2022-08-17T16:46:29.982Z,100488.91
2022-08-17T16:50:32.227Z,100486.81
2022-08-17T16:54:35.184Z,100484.66
2022-08-17T16:58:37.601Z,100486.50
2022-08-17T17:02:47.090Z,100475.91
2022-08-17T17:07:02.555Z,100480.84
2022-08-17T17:11:12.603Z,100488.25
2022-08-17T17:15:17.655Z,100478.34
2022-08-17T17:19:35.204Z,100478.94
2022-08-17T17:23:51.301Z,100482.09
2022-08-17T17:28:01.888Z,100487.38
2022-08-17T17:32:38.775Z,100479.06
2022-08-17T17:36:47.075Z,100478.28
2022-08-17T17:40:54.908Z,100476.56
2022-08-17T17:45:09.423Z,100479.47
2022-08-17T17:49:14.091Z,100471.94
2022-08-17T17:53:35.176Z,100478.28
2022-08-17T17:58:13.385Z,100473.00
2022-08-17T18:02:52.056Z,100478.16
2022-08-17T18:07:05.812Z,100487.53
2022-08-17T18:11:35.049Z,100481.03
2022-08-17T18:15:51.453Z,100481.56
2022-08-17T18:19:55.601Z,100480.69
2022-08-17T18:24:03.004Z,100483.28
2022-08-17T18:28:04.863Z,100478.41
2022-08-17T18:32:29.856Z,100491.38
2022-08-17T18:36:39.891Z,100499.25
2022-08-17T18:40:41.391Z,100507.44
2022-08-17T18:44:44.661Z,100503.00
2022-08-17T18:48:52.678Z,100492.38
2022-08-17T18:53:14.640Z,100489.53
2022-08-17T18:57:37.855Z,100500.50
2022-08-17T19:01:53.270Z,100508.47
2022-08-17T19:06:17.111Z,100500.38
2022-08-17T19:10:46.101Z,100500.63
2022-08-17T19:14:49.931Z,100493.81
2022-08-17T19:19:09.984Z,100489.03
2022-08-17T19:23:40.309Z,100486.09
2022-08-17T19:28:22.272Z,100495.31
2022-08-17T19:32:31.652Z,100489.63
2022-08-17T19:36:53.233Z,100497.47
2022-08-17T19:41:07.106Z,100497.63
2022-08-17T19:45:15.797Z,100493.56
2022-08-17T19:49:49.716Z,100506.03
2022-08-17T19:54:31.006Z,100496.59
2022-08-17T19:58:45.712Z,100493.69
2022-08-17T20:02:51.571Z,100493.00
2022-08-17T20:06:53.663Z,100479.31
2022-08-17T20:11:15.040Z,100481.66
2022-08-17T20:15:28.489Z,100478.03
2022-08-17T20:19:53.428Z,100480.09
2022-08-17T20:24:20.178Z,100480.91
2022-08-17T20:28:27.943Z,100484.72
2022-08-17T20:32:35.263Z,100478.09
2022-08-17T20:36:57.913Z,100479.78
2022-08-17T20:41:02.519Z,100475.66
2022-08-17T20:45:24.708Z,100474.22
2022-08-17T20:50:07.037Z,100478.31
2022-08-17T20:54:17.867Z,100478.97
2022-08-17T20:58:25.184Z,100484.66
2022-08-17T21:02:32.821Z,100478.31
2022-08-17T21:06:34.358Z,100484.00
2022-08-17T21:10:37.323Z,100478.97
2022-08-17T21:14:57.346Z,100478.97
2022-08-17T21:19:10.900Z,100492.28
2022-08-17T21:23:42.179Z,100491.19
2022-08-17T21:27:53.118Z,100498.91
2022-08-17T21:32:03.666Z,100503.91
2022-08-17T21:36:12.638Z,100495.88
2022-08-17T21:40:14.848Z,100496.72
2022-08-17T21:44:31.335Z,100492.19
2022-08-17T21:48:43.099Z,100493.63
2022-08-17T21:52:44.942Z,100499.19
2022-08-17T21:56:48.294Z,100502.50
2022-08-17T22:01:21.094Z,100495.41
2022-08-17T22:05:37.072Z,100505.91
2022-08-17T22:09:48.398Z,100512.94
2022-08-17T22:13:49.860Z,100507.47
2022-08-17T22:18:03.964Z,100508.16
2022-08-17T22:22:09.012Z,100508.72
2022-08-17T22:26:13.648Z,100508.25
2022-08-17T22:30:30.110Z,100507.47
2022-08-17T22:34:31.629Z,100510.31
2022-08-17T22:38:33.273Z,100513.03
2022-08-17T22:42:47.251Z,100505.31
2022-08-17T22:47:11.259Z,100511.88
2022-08-17T22:51:17.479Z,100508.53
2022-08-17T22:55:37.720Z,100512.84
2022-08-17T22:59:50.473Z,100514.09
2022-08-17T23:04:01.252Z,100508.97
2022-08-17T23:08:03.504Z,100512.97
2022-08-17T23:12:13.602Z,100508.31
2022-08-17T23:16:15.111Z,100506.66
2022-08-17T23:20:17.587Z,100510.84
2022-08-17T23:24:28.196Z,100502.72
2022-08-17T23:28:29.658Z,100507.41
2022-08-17T23:32:31.554Z,100502.38
2022-08-17T23:36:32.964Z,100493.09
2022-08-17T23:40:34.558Z,100499.25
2022-08-17T23:44:37.507Z,100501.25
2022-08-17T23:48:41.019Z,100498.06
2022-08-17T23:52:43.614Z,100494.06
2022-08-17T23:56:47.733Z,100495.06
